createdAt,value
2017-10-28T00:01:24.005Z,0.60
2017-10-28T00:03:52.300Z,0.50
2017-10-28T00:06:20.973Z,0.40
2017-10-28T00:08:49.252Z,0.53
2017-10-28T00:11:18.292Z,0.80
2017-10-28T00:13:46.568Z,0.50
2017-10-28T00:16:14.848Z,0.70
2017-10-28T00:18:43.125Z,0.90
2017-10-28T00:21:11.524Z,0.37
2017-10-28T00:23:39.801Z,0.40
2017-10-28T00:26:08.079Z,0.60
2017-10-28T00:28:36.366Z,0.50
2017-10-28T00:31:10.031Z,0.67
2017-10-28T00:33:43.732Z,0.70
2017-10-28T00:36:14.816Z,0.60
2017-10-28T00:38:43.092Z,0.60
2017-10-28T00:41:11.380Z,0.50
2017-10-28T00:43:40.418Z,0.63
2017-10-28T00:46:08.680Z,0.80
2017-10-28T00:48:36.957Z,0.70
2017-10-28T00:51:05.233Z,0.80
2017-10-28T00:53:33.505Z,0.97
2017-10-28T00:56:01.782Z,0.63
2017-10-28T00:58:30.997Z,0.70
2017-10-28T01:00:59.269Z,0.67
2017-10-28T01:03:27.548Z,0.70
2017-10-28T01:05:55.817Z,0.77
2017-10-28T01:08:24.802Z,0.57
2017-10-28T01:10:53.080Z,0.50
2017-10-28T01:13:21.356Z,0.50
2017-10-28T01:15:49.629Z,0.43
2017-10-28T01:18:17.904Z,0.67
2017-10-28T01:20:46.184Z,0.43
2017-10-28T01:23:14.457Z,1.00
2017-10-28T01:25:42.734Z,0.87
2017-10-28T01:28:11.008Z,1.00
2017-10-28T01:30:39.299Z,1.07
2017-10-28T01:33:07.565Z,1.10
2017-10-28T01:35:35.846Z,0.83
2017-10-28T01:38:04.137Z,1.00
2017-10-28T01:40:32.418Z,1.03
2017-10-28T01:43:00.701Z,0.80
2017-10-28T01:45:28.968Z,0.73
2017-10-28T01:47:57.254Z,1.00
2017-10-28T01:50:25.541Z,0.80
2017-10-28T01:52:53.808Z,0.70
2017-10-28T01:55:22.087Z,0.50
2017-10-28T01:57:50.364Z,0.87
2017-10-28T02:00:18.636Z,0.40
2017-10-28T02:02:46.925Z,0.70
2017-10-28T02:05:15.204Z,0.60
2017-10-28T02:07:43.493Z,0.73
2017-10-28T02:10:12.552Z,0.50
2017-10-28T02:12:40.842Z,0.80
2017-10-28T02:15:09.109Z,0.50
2017-10-28T02:17:38.068Z,0.50
2017-10-28T02:20:06.343Z,0.40
2017-10-28T02:22:34.618Z,0.70
2017-10-28T02:25:02.895Z,0.50
2017-10-28T02:27:31.171Z,0.70
2017-10-28T02:29:59.447Z,0.30
2017-10-28T02:32:27.725Z,0.70
2017-10-28T02:34:56.000Z,0.60
2017-10-28T02:37:24.276Z,0.60
2017-10-28T02:39:52.551Z,0.50
2017-10-28T02:42:20.828Z,0.67
2017-10-28T02:44:49.104Z,0.43
2017-10-28T02:47:17.385Z,0.50
2017-10-28T02:49:45.670Z,0.80
2017-10-28T02:52:13.956Z,0.80
2017-10-28T02:54:42.239Z,1.13
2017-10-28T02:57:10.537Z,0.50
2017-10-28T02:59:38.827Z,0.90
2017-10-28T03:02:07.874Z,0.67
2017-10-28T03:04:36.157Z,0.60
2017-10-28T03:07:04.441Z,0.60
2017-10-28T03:09:32.729Z,0.80
2017-10-28T03:12:01.601Z,0.90
2017-10-28T03:14:29.889Z,0.63
2017-10-28T03:16:58.177Z,1.00
2017-10-28T03:19:26.465Z,1.00
2017-10-28T03:21:54.745Z,1.60
2017-10-28T03:24:23.798Z,0.97
2017-10-28T03:26:52.092Z,1.27
2017-10-28T03:29:20.369Z,1.30
2017-10-28T03:31:48.661Z,1.10
2017-10-28T03:34:17.433Z,1.27
2017-10-28T03:36:45.713Z,1.07
2017-10-28T03:39:13.985Z,1.40
2017-10-28T03:41:42.256Z,1.40
2017-10-28T03:44:10.536Z,1.40
2017-10-28T03:46:38.832Z,1.67
2017-10-28T03:49:07.890Z,1.40
2017-10-28T03:51:36.159Z,1.13
2017-10-28T03:54:04.448Z,1.10
2017-10-28T03:56:32.729Z,1.07
2017-10-28T03:59:01.009Z,0.93
2017-10-28T04:01:29.300Z,0.63
2017-10-28T04:03:57.589Z,0.50
2017-10-28T04:06:25.885Z,0.73
2017-10-28T04:08:54.157Z,0.63
2017-10-28T04:11:22.438Z,0.63
2017-10-28T04:13:50.712Z,0.60
2017-10-28T04:16:19.006Z,0.70
2017-10-28T04:18:47.284Z,0.70
2017-10-28T04:21:15.568Z,0.70
2017-10-28T04:23:43.853Z,0.70
2017-10-28T04:26:12.134Z,0.57
2017-10-28T04:28:40.413Z,0.93
2017-10-28T04:31:08.692Z,0.50
2017-10-28T04:33:36.983Z,0.73
2017-10-28T04:36:05.272Z,0.80
2017-10-28T04:38:33.561Z,0.60
2017-10-28T04:41:02.617Z,0.73
2017-10-28T04:43:30.900Z,0.83
2017-10-28T04:45:59.178Z,0.83
2017-10-28T04:48:27.455Z,1.07
2017-10-28T04:50:55.780Z,0.80
2017-10-28T04:53:24.757Z,0.90
2017-10-28T04:55:53.808Z,0.77
2017-10-28T04:58:22.092Z,0.80
2017-10-28T05:00:50.377Z,0.63
2017-10-28T05:03:18.663Z,0.90
2017-10-28T05:05:46.946Z,0.80
2017-10-28T05:08:16.001Z,0.70
2017-10-28T05:10:44.323Z,0.77
2017-10-28T05:13:13.363Z,0.80
2017-10-28T05:15:41.648Z,0.70
2017-10-28T05:18:09.925Z,0.93
2017-10-28T05:20:38.211Z,1.27
2017-10-28T05:23:06.491Z,0.80
2017-10-28T05:25:34.770Z,0.60
2017-10-28T05:28:03.044Z,0.87
2017-10-28T05:30:31.332Z,1.00
2017-10-28T05:33:01.024Z,2.03
2017-10-28T05:35:29.309Z,0.87
2017-10-28T05:37:57.585Z,1.13
2017-10-28T05:40:25.867Z,0.90
2017-10-28T05:42:54.152Z,0.90
2017-10-28T05:45:22.433Z,0.60
2017-10-28T05:47:50.724Z,1.07
2017-10-28T05:50:19.013Z,0.83
2017-10-28T05:52:47.328Z,1.10
2017-10-28T05:55:15.605Z,1.30
2017-10-28T05:57:43.884Z,0.60
2017-10-28T06:00:12.172Z,0.70
2017-10-28T06:02:41.225Z,1.40
2017-10-28T06:05:09.509Z,1.03
2017-10-28T06:07:37.943Z,0.80
2017-10-28T06:10:06.229Z,1.00
2017-10-28T06:12:34.500Z,1.30
2017-10-28T06:15:03.432Z,1.13
2017-10-28T06:17:31.709Z,1.93
2017-10-28T06:19:59.992Z,1.47
2017-10-28T06:22:28.273Z,1.47
2017-10-28T06:24:56.553Z,0.90
2017-10-28T06:27:24.828Z,1.20
2017-10-28T06:29:53.113Z,0.90
2017-10-28T06:32:21.391Z,0.90
2017-10-28T06:34:49.660Z,1.17
2017-10-28T06:37:17.942Z,1.20
2017-10-28T06:39:46.247Z,1.10
2017-10-28T06:42:14.521Z,1.10
2017-10-28T06:44:42.813Z,1.07
2017-10-28T06:47:11.096Z,1.20
2017-10-28T06:49:40.144Z,1.20
2017-10-28T06:52:08.437Z,1.27
2017-10-28T06:54:36.713Z,1.47
2017-10-28T06:57:05.009Z,1.70
2017-10-28T06:59:33.284Z,1.70
2017-10-28T07:02:02.350Z,1.33
2017-10-28T07:04:30.628Z,1.63
2017-10-28T07:06:58.903Z,1.70
2017-10-28T07:09:27.179Z,1.90
2017-10-28T07:11:55.452Z,1.90
2017-10-28T07:14:23.725Z,1.60
2017-10-28T07:16:52.000Z,1.50
2017-10-28T07:19:20.280Z,1.80
2017-10-28T07:21:48.559Z,1.70
2017-10-28T07:24:16.835Z,1.50
2017-10-28T07:26:45.443Z,1.90
2017-10-28T07:29:14.490Z,1.83
2017-10-28T07:31:42.762Z,1.83
2017-10-28T07:34:11.028Z,1.67
2017-10-28T07:36:39.305Z,1.70
2017-10-28T07:39:07.582Z,1.97
2017-10-28T07:41:36.359Z,2.33
2017-10-28T07:44:04.647Z,2.30
2017-10-28T07:46:32.930Z,2.10
2017-10-28T07:49:01.220Z,2.70
2017-10-28T07:51:29.509Z,2.80
2017-10-28T07:53:57.853Z,2.73
2017-10-28T07:56:26.189Z,2.00
2017-10-28T07:58:54.488Z,2.43
2017-10-28T08:01:22.773Z,2.33
2017-10-28T08:03:56.456Z,2.00
2017-10-28T08:06:24.745Z,2.20
2017-10-28T08:08:53.036Z,2.30
2017-10-28T08:11:21.330Z,2.23
2017-10-28T08:13:49.609Z,2.20
2017-10-28T08:16:17.904Z,2.33
2017-10-28T08:18:46.174Z,2.50
2017-10-28T08:21:14.443Z,2.50
2017-10-28T08:23:42.717Z,2.20
2017-10-28T08:26:10.987Z,1.80
2017-10-28T08:28:39.252Z,1.83
2017-10-28T08:31:07.526Z,1.87
2017-10-28T08:33:35.799Z,1.90
2017-10-28T08:36:04.073Z,1.90
2017-10-28T08:38:32.348Z,2.20
2017-10-28T08:41:00.622Z,2.13
2017-10-28T08:43:28.899Z,2.00
2017-10-28T08:45:57.230Z,2.03
2017-10-28T08:48:26.289Z,1.73
2017-10-28T08:50:54.580Z,1.73
2017-10-28T08:53:22.868Z,1.60
2017-10-28T08:55:51.158Z,1.60
2017-10-28T08:58:19.450Z,1.93
2017-10-28T09:00:48.505Z,1.80
2017-10-28T09:03:16.793Z,1.50
2017-10-28T09:05:45.119Z,1.57
2017-10-28T09:08:13.386Z,1.57
2017-10-28T09:10:41.662Z,1.50
2017-10-28T09:13:10.717Z,1.60
2017-10-28T09:15:39.009Z,1.60
2017-10-28T09:18:08.235Z,1.57
2017-10-28T09:20:36.528Z,1.80
2017-10-28T09:23:04.848Z,1.40
2017-10-28T09:25:33.136Z,1.50
2017-10-28T09:28:02.205Z,1.37
2017-10-28T09:30:30.489Z,1.33
2017-10-28T09:32:58.780Z,1.20
2017-10-28T09:35:27.066Z,1.23
2017-10-28T09:37:55.338Z,1.40
2017-10-28T09:40:24.395Z,1.67
2017-10-28T09:42:52.682Z,1.50
2017-10-28T09:45:20.963Z,1.63
2017-10-28T09:47:49.773Z,1.53
2017-10-28T09:50:18.044Z,1.63
2017-10-28T09:52:46.328Z,2.10
2017-10-28T09:55:15.368Z,1.80
2017-10-28T09:57:43.665Z,1.70
2017-10-28T10:00:11.928Z,1.50
2017-10-28T10:02:40.215Z,1.60
2017-10-28T10:05:08.484Z,1.53
2017-10-28T10:07:36.772Z,1.40
2017-10-28T10:10:05.059Z,1.67
2017-10-28T10:12:33.347Z,1.70
2017-10-28T10:15:01.634Z,1.63
2017-10-28T10:17:30.828Z,2.20
2017-10-28T10:19:59.108Z,1.80
2017-10-28T10:22:27.400Z,2.00
2017-10-28T10:24:55.701Z,2.20
2017-10-28T10:27:24.755Z,2.30
2017-10-28T10:29:54.473Z,1.97
2017-10-28T10:32:22.748Z,2.30
2017-10-28T10:34:51.802Z,2.00
2017-10-28T10:37:20.094Z,2.83
2017-10-28T10:39:48.392Z,2.20
2017-10-28T10:42:16.699Z,2.27
2017-10-28T10:44:44.982Z,2.60
2017-10-28T10:47:13.256Z,1.97
2017-10-28T10:49:41.537Z,2.67
2017-10-28T10:52:09.825Z,2.17
2017-10-28T10:54:38.109Z,2.07
2017-10-28T10:57:06.403Z,2.10
2017-10-28T10:59:34.676Z,1.80
2017-10-28T11:02:02.936Z,1.77
2017-10-28T11:04:32.133Z,2.07
2017-10-28T11:07:00.405Z,1.63
2017-10-28T11:09:28.684Z,2.13
2017-10-28T11:11:56.964Z,1.90
2017-10-28T11:14:25.241Z,2.00
2017-10-28T11:16:53.527Z,2.00
2017-10-28T11:19:21.819Z,1.60
2017-10-28T11:21:50.108Z,1.90
2017-10-28T11:24:18.403Z,2.17
2017-10-28T11:26:47.310Z,2.20
2017-10-28T11:29:15.597Z,2.00
2017-10-28T11:31:43.887Z,2.00
2017-10-28T11:34:12.164Z,1.70
2017-10-28T11:36:40.684Z,2.57
2017-10-28T11:39:09.727Z,1.87
2017-10-28T11:41:38.015Z,1.90
2017-10-28T11:44:06.305Z,2.37
2017-10-28T11:46:34.585Z,1.67
2017-10-28T11:49:02.885Z,1.80
2017-10-28T11:51:31.165Z,1.50
2017-10-28T11:54:00.213Z,2.00
2017-10-28T11:56:28.490Z,2.87
2017-10-28T11:58:56.766Z,2.13
2017-10-28T12:01:25.122Z,2.03
2017-10-28T12:03:53.425Z,2.17
2017-10-28T12:06:21.712Z,1.70
2017-10-28T12:08:49.997Z,1.53
2017-10-28T12:11:18.302Z,1.73
2017-10-28T12:13:46.583Z,1.97
2017-10-28T12:16:14.866Z,1.70
2017-10-28T12:18:43.156Z,1.73
2017-10-28T12:21:11.438Z,1.80
2017-10-28T12:23:39.722Z,1.50
2017-10-28T12:26:08.005Z,1.87
2017-10-28T12:28:36.293Z,2.30
2017-10-28T12:31:04.568Z,1.73
2017-10-28T12:33:32.852Z,2.33
2017-10-28T12:36:01.148Z,2.07
2017-10-28T12:38:29.488Z,2.73
2017-10-28T12:40:57.768Z,2.40
2017-10-28T12:43:26.056Z,2.67
2017-10-28T12:45:54.337Z,2.10
2017-10-28T12:48:22.631Z,2.00
2017-10-28T12:50:51.696Z,1.80
2017-10-28T12:53:19.971Z,2.30
2017-10-28T12:55:48.236Z,1.93
2017-10-28T12:58:16.506Z,1.97
2017-10-28T13:00:44.794Z,2.87
2017-10-28T13:03:13.061Z,2.50
2017-10-28T13:05:41.339Z,2.47
2017-10-28T13:08:09.617Z,2.50
2017-10-28T13:10:38.880Z,2.53
2017-10-28T13:13:07.153Z,2.30
2017-10-28T13:15:35.418Z,3.73
2017-10-28T13:18:04.460Z,2.67
2017-10-28T13:20:32.731Z,2.27
2017-10-28T13:23:01.001Z,2.23
2017-10-28T13:25:29.279Z,2.27
2017-10-28T13:27:57.554Z,2.80
2017-10-28T13:30:25.838Z,2.37
2017-10-28T13:32:54.124Z,2.00
2017-10-28T13:35:22.401Z,2.60
2017-10-28T13:37:50.681Z,2.70
2017-10-28T13:40:18.972Z,2.60
2017-10-28T13:42:47.251Z,3.10
2017-10-28T13:45:15.539Z,2.73
2017-10-28T13:47:43.818Z,2.67
2017-10-28T13:50:12.097Z,2.70
2017-10-28T13:52:41.143Z,2.97
2017-10-28T13:55:09.419Z,3.00
2017-10-28T13:57:37.701Z,3.17
2017-10-28T14:00:05.984Z,2.87
2017-10-28T14:02:34.270Z,3.77
2017-10-28T14:05:02.550Z,3.00
2017-10-28T14:07:30.844Z,3.30
2017-10-28T14:09:59.116Z,3.50
2017-10-28T14:12:27.639Z,2.63
2017-10-28T14:14:58.724Z,3.23
2017-10-28T14:17:27.012Z,3.03
2017-10-28T14:19:55.301Z,2.87
2017-10-28T14:22:24.581Z,3.07
2017-10-28T14:24:52.864Z,2.73
2017-10-28T14:27:21.148Z,3.40
2017-10-28T14:29:49.428Z,3.33
2017-10-28T14:32:17.705Z,3.10
2017-10-28T14:34:46.759Z,3.13
2017-10-28T14:37:15.046Z,3.57
2017-10-28T14:39:43.322Z,3.40
2017-10-28T14:42:11.597Z,2.90
2017-10-28T14:44:39.885Z,3.10
2017-10-28T14:47:08.171Z,3.72
2017-10-28T14:49:36.456Z,2.60
2017-10-28T14:52:04.751Z,2.80
2017-10-28T14:54:33.044Z,3.00
2017-10-28T14:57:01.320Z,3.17
2017-10-28T14:59:29.603Z,3.20
2017-10-28T15:01:57.900Z,3.27
2017-10-28T15:04:26.177Z,2.90
2017-10-28T15:06:54.457Z,3.63
2017-10-28T15:09:22.745Z,3.37
2017-10-28T15:11:51.036Z,2.80
2017-10-28T15:14:19.326Z,3.37
2017-10-28T15:16:47.622Z,3.10
2017-10-28T15:19:16.756Z,2.70
2017-10-28T15:21:45.040Z,3.73
2017-10-28T15:24:13.325Z,3.37
2017-10-28T15:26:41.605Z,3.97
2017-10-28T15:29:09.889Z,3.23
2017-10-28T15:31:38.167Z,3.40
2017-10-28T15:34:07.226Z,3.70
2017-10-28T15:36:35.502Z,3.10
2017-10-28T15:39:04.557Z,3.87
2017-10-28T15:41:32.832Z,4.10
2017-10-28T15:44:01.121Z,3.50
2017-10-28T15:46:29.404Z,3.87
2017-10-28T15:48:57.695Z,4.00
2017-10-28T15:51:25.971Z,4.30
2017-10-28T15:53:54.249Z,4.60
2017-10-28T15:56:22.529Z,4.10
2017-10-28T15:58:50.815Z,4.60
2017-10-28T16:01:19.148Z,5.17
2017-10-28T16:03:47.432Z,4.70
2017-10-28T16:06:17.015Z,4.60
2017-10-28T16:08:45.306Z,5.83
2017-10-28T16:11:13.583Z,4.20
2017-10-28T16:13:41.869Z,6.50
2017-10-28T16:16:10.213Z,5.47
2017-10-28T16:18:39.265Z,5.03
2017-10-28T16:21:07.542Z,5.90
2017-10-28T16:23:35.835Z,5.17
2017-10-28T16:26:04.152Z,5.53
2017-10-28T16:28:32.436Z,5.60
2017-10-28T16:31:00.733Z,7.03
2017-10-28T16:33:29.009Z,6.20
2017-10-28T16:35:57.320Z,6.20
2017-10-28T16:38:25.601Z,6.10
2017-10-28T16:40:53.873Z,6.27
2017-10-28T16:43:22.148Z,6.63
2017-10-28T16:45:50.441Z,7.00
2017-10-28T16:48:19.500Z,8.73
2017-10-28T16:50:47.792Z,8.20
2017-10-28T16:53:16.074Z,8.50
2017-10-28T16:55:44.368Z,7.53
2017-10-28T16:58:12.648Z,8.10
2017-10-28T17:00:40.939Z,10.70
2017-10-28T17:03:09.988Z,7.57
2017-10-28T17:05:38.272Z,8.20
2017-10-28T17:08:06.544Z,7.20
2017-10-28T17:10:34.818Z,7.47
2017-10-28T17:13:03.091Z,7.27
2017-10-28T17:15:31.365Z,7.10
2017-10-28T17:17:59.640Z,7.40
2017-10-28T17:20:27.928Z,7.20
2017-10-28T17:22:56.847Z,7.60
2017-10-28T17:25:25.135Z,7.97
2017-10-28T17:27:53.428Z,8.37
2017-10-28T17:30:22.003Z,8.50
2017-10-28T17:32:50.291Z,8.20
2017-10-28T17:35:18.581Z,8.10
2017-10-28T17:37:46.852Z,6.97
2017-10-28T17:40:15.137Z,8.60
2017-10-28T17:42:43.408Z,5.70
2017-10-28T17:45:11.684Z,9.53
2017-10-28T17:47:39.961Z,7.10
2017-10-28T17:50:08.249Z,8.37
2017-10-28T17:52:36.558Z,6.70
2017-10-28T17:55:04.829Z,6.57
2017-10-28T17:57:33.109Z,6.23
2017-10-28T18:00:01.389Z,7.07
2017-10-28T18:02:29.664Z,6.20
2017-10-28T18:04:57.945Z,5.97
2017-10-28T18:07:27.001Z,6.93
2017-10-28T18:09:55.277Z,6.33
2017-10-28T18:12:23.550Z,6.00
2017-10-28T18:14:51.836Z,5.70
2017-10-28T18:17:20.118Z,4.53
2017-10-28T18:19:48.407Z,4.60
2017-10-28T18:22:16.692Z,5.40
2017-10-28T18:24:44.972Z,3.87
2017-10-28T18:27:13.244Z,5.17
2017-10-28T18:29:41.526Z,5.37
2017-10-28T18:32:09.802Z,5.50
2017-10-28T18:34:38.110Z,4.27
2017-10-28T18:37:06.403Z,3.80
2017-10-28T18:39:34.680Z,4.03
2017-10-28T18:42:03.058Z,4.57
2017-10-28T18:44:31.409Z,3.70
2017-10-28T18:46:59.708Z,3.60
2017-10-28T18:49:28.022Z,4.20
2017-10-28T18:51:56.335Z,4.77
2017-10-28T18:54:24.618Z,4.50
2017-10-28T18:56:52.908Z,4.40
2017-10-28T18:59:21.213Z,4.33
2017-10-28T19:01:49.507Z,3.40
2017-10-28T19:04:17.854Z,3.90
2017-10-28T19:06:46.319Z,3.83
2017-10-28T19:09:14.714Z,3.40
2017-10-28T19:11:43.142Z,3.07
2017-10-28T19:14:11.504Z,2.90
2017-10-28T19:16:39.882Z,3.00
2017-10-28T19:19:09.212Z,3.17
2017-10-28T19:21:37.730Z,2.40
2017-10-28T19:24:06.097Z,3.10
2017-10-28T19:26:34.506Z,2.10
2017-10-28T19:29:02.855Z,2.10
2017-10-28T19:31:31.933Z,2.27
2017-10-28T19:34:00.638Z,2.23
2017-10-28T19:36:29.014Z,1.83
2017-10-28T19:38:57.329Z,1.47
2017-10-28T19:41:25.681Z,1.27
2017-10-28T19:43:55.252Z,1.20
2017-10-28T19:46:23.564Z,1.00
2017-10-28T19:48:52.014Z,1.20
2017-10-28T19:51:20.391Z,0.80
2017-10-28T19:53:48.732Z,1.27
2017-10-28T19:56:18.995Z,1.13
2017-10-28T19:58:47.676Z,1.10
2017-10-28T20:01:16.503Z,0.97
2017-10-28T20:03:44.882Z,0.97
2017-10-28T20:06:14.944Z,0.90
2017-10-28T20:08:43.269Z,2.58
2017-10-28T20:11:11.553Z,0.87
2017-10-28T20:13:39.849Z,0.70
2017-10-28T20:16:08.453Z,0.80
2017-10-28T20:18:36.752Z,0.90
2017-10-28T20:21:05.048Z,1.10
2017-10-28T20:23:33.349Z,0.60
2017-10-28T20:26:01.704Z,0.80
2017-10-28T20:28:30.673Z,0.60
2017-10-28T20:30:58.973Z,0.40
2017-10-28T20:33:27.289Z,0.50
2017-10-28T20:35:55.588Z,0.50
2017-10-28T20:38:23.888Z,0.50
2017-10-28T20:40:52.185Z,0.40
2017-10-28T20:43:20.472Z,0.40
2017-10-28T20:45:48.761Z,0.77
2017-10-28T20:48:17.036Z,0.70
2017-10-28T20:50:45.342Z,0.60
2017-10-28T20:53:13.637Z,0.40
2017-10-28T20:55:41.940Z,0.50
2017-10-28T20:58:11.089Z,0.30
2017-10-28T21:00:39.389Z,0.30
2017-10-28T21:03:07.690Z,0.43
2017-10-28T21:05:35.986Z,0.57
2017-10-28T21:08:04.278Z,1.33
2017-10-28T21:10:32.576Z,0.50
2017-10-28T21:13:00.873Z,0.40
2017-10-28T21:15:29.175Z,0.27
2017-10-28T21:17:57.455Z,0.37
2017-10-28T21:20:26.495Z,0.40
2017-10-28T21:22:54.818Z,0.60
2017-10-28T21:25:23.857Z,2.22
2017-10-28T21:27:52.149Z,0.40
2017-10-28T21:30:20.432Z,0.47
2017-10-28T21:32:48.729Z,1.00
2017-10-28T21:35:17.021Z,0.37
2017-10-28T21:37:45.300Z,0.37
2017-10-28T21:40:13.583Z,0.30
2017-10-28T21:42:41.870Z,0.20
2017-10-28T21:45:10.160Z,0.33
2017-10-28T21:47:38.441Z,0.50
2017-10-28T21:50:06.732Z,0.40
2017-10-28T21:52:35.767Z,0.37
2017-10-28T21:55:04.046Z,0.40
2017-10-28T21:57:32.318Z,0.37
2017-10-28T22:00:00.589Z,0.30
2017-10-28T22:02:28.870Z,0.40
2017-10-28T22:04:57.152Z,0.47
2017-10-28T22:07:25.441Z,0.30
2017-10-28T22:09:53.725Z,0.40
2017-10-28T22:12:22.013Z,0.60
2017-10-28T22:14:50.336Z,0.50
2017-10-28T22:17:19.393Z,0.23
2017-10-28T22:19:47.686Z,0.30
2017-10-28T22:22:15.973Z,0.50
2017-10-28T22:24:45.033Z,0.50
2017-10-28T22:27:13.324Z,0.30
2017-10-28T22:29:41.600Z,0.60
2017-10-28T22:32:09.887Z,0.40
2017-10-28T22:34:38.181Z,0.40
2017-10-28T22:37:06.473Z,0.30
2017-10-28T22:39:34.752Z,1.33
2017-10-28T22:42:03.045Z,0.67
2017-10-28T22:44:31.331Z,0.40
2017-10-28T22:46:59.619Z,0.23
2017-10-28T22:49:27.900Z,0.30
2017-10-28T22:51:56.185Z,0.20
2017-10-28T22:54:24.539Z,0.20
2017-10-28T22:56:52.814Z,0.33
2017-10-28T22:59:21.100Z,0.20
2017-10-28T23:01:49.381Z,0.20
2017-10-28T23:04:17.688Z,0.37
2017-10-28T23:06:45.976Z,0.20
2017-10-28T23:09:14.252Z,0.20
2017-10-28T23:11:43.306Z,0.30
2017-10-28T23:14:11.579Z,0.20
2017-10-28T23:16:39.861Z,0.20
2017-10-28T23:19:08.148Z,0.30
2017-10-28T23:21:36.449Z,0.30
2017-10-28T23:24:05.496Z,0.27
2017-10-28T23:26:33.794Z,0.40
2017-10-28T23:29:02.081Z,0.30
2017-10-28T23:31:30.370Z,0.27
2017-10-28T23:33:58.653Z,0.30
2017-10-28T23:36:27.261Z,0.30
2017-10-28T23:38:55.544Z,0.20
2017-10-28T23:41:23.828Z,0.20
2017-10-28T23:43:52.104Z,0.30
2017-10-28T23:46:20.392Z,0.20
2017-10-28T23:48:48.668Z,0.30
2017-10-28T23:51:16.941Z,0.20
2017-10-28T23:53:45.994Z,0.20
2017-10-28T23:56:14.588Z,0.20
2017-10-28T23:58:42.877Z,0.20
